Time;durP1;ratioP1;P1;durP2;ratioP2;P2;SDS_P1;SDS_P2;PMS_P1;PMS_P2;Temp;Humidity;BMP_temperature;BMP_pressure;BME280_temperature;BME280_humidity;BME280_pressure;Samples;Min_cycle;Max_cycle;Signal;HPM_P1;HPM_P2
2022/10/26 00:01:04;;;;;;;14.20;7.50;;;13.40;99.90;;;;;;5058873;28;20032;-73
2022/10/26 00:03:30;;;;;;;12.98;6.43;;;13.30;99.90;;;;;;5063943;28;20041;-73
2022/10/26 00:06:12;;;;;;;12.55;5.90;;;13.30;99.90;;;;;;5058670;28;20066;-74
2022/10/26 00:08:38;;;;;;;12.32;5.80;;;13.30;99.90;;;;;;5057961;28;20029;-73
2022/10/26 00:11:05;;;;;;;18.23;6.68;;;13.30;99.90;;;;;;5062918;28;20043;-73
2022/10/26 00:13:31;;;;;;;13.25;5.75;;;13.30;99.90;;;;;;5058864;28;20025;-73
2022/10/26 00:15:57;;;;;;;13.55;6.15;;;13.40;99.90;;;;;;5065316;28;20028;-73
2022/10/26 00:18:23;;;;;;;18.08;7.28;;;13.40;99.90;;;;;;5064586;28;20059;-73
2022/10/26 00:20:50;;;;;;;14.95;7.05;;;13.40;99.90;;;;;;5060006;28;20087;-72
2022/10/26 00:23:17;;;;;;;16.92;6.38;;;13.50;99.90;;;;;;5057960;28;20110;-73
2022/10/26 00:25:43;;;;;;;11.05;5.30;;;13.50;99.90;;;;;;5054347;28;20466;-73
2022/10/26 00:28:09;;;;;;;14.68;6.25;;;13.50;99.90;;;;;;5058223;28;20028;-73
2022/10/26 00:30:38;;;;;;;13.93;6.43;;;13.40;99.90;;;;;;5062038;28;20032;-73
2022/10/26 00:33:03;;;;;;;12.85;6.13;;;13.30;99.90;;;;;;5059804;28;20072;-73
2022/10/26 00:35:29;;;;;;;13.52;5.80;;;13.40;99.90;;;;;;5060422;28;20513;-73
2022/10/26 00:37:55;;;;;;;13.77;5.68;;;13.40;99.90;;;;;;5059496;28;20024;-72
2022/10/26 00:40:25;;;;;;;15.02;6.25;;;13.40;99.90;;;;;;5062018;28;20053;-72
2022/10/26 00:42:50;;;;;;;8.60;5.70;;;13.40;99.90;;;;;;5059316;28;20020;-72
2022/10/26 00:45:21;;;;;;;12.02;6.32;;;13.30;99.90;;;;;;5064157;28;20171;-72
2022/10/26 00:47:52;;;;;;;14.43;5.30;;;13.40;99.90;;;;;;5063085;28;20074;-73
2022/10/26 00:50:23;;;;;;;13.23;5.60;;;13.40;99.90;;;;;;5059335;28;20025;-73
2022/10/26 00:52:53;;;;;;;10.82;5.30;;;13.40;99.90;;;;;;5068566;28;20039;-72
2022/10/26 00:55:23;;;;;;;16.90;6.35;;;13.40;99.90;;;;;;5063448;28;20021;-72
2022/10/26 00:57:51;;;;;;;13.35;5.57;;;13.50;99.90;;;;;;5064563;28;20040;-73
2022/10/26 01:00:17;;;;;;;13.10;5.65;;;13.50;99.90;;;;;;5064619;28;20033;-72
2022/10/26 01:02:45;;;;;;;12.85;5.38;;;13.50;99.90;;;;;;5070889;28;20028;-73
2022/10/26 01:05:14;;;;;;;11.73;5.75;;;13.40;99.90;;;;;;5061245;28;20032;-73
2022/10/26 01:07:42;;;;;;;14.98;5.70;;;13.50;99.90;;;;;;5068606;28;20469;-73
2022/10/26 01:10:08;;;;;;;11.93;5.38;;;13.40;99.90;;;;;;5064297;28;20032;-73
2022/10/26 01:12:34;;;;;;;11.73;5.30;;;13.40;99.90;;;;;;5064117;28;20059;-73
2022/10/26 01:15:00;;;;;;;12.82;5.93;;;13.40;99.90;;;;;;5066712;28;20060;-72
2022/10/26 01:17:32;;;;;;;12.75;6.13;;;13.40;99.90;;;;;;5061793;28;20044;-73
2022/10/26 01:20:17;;;;;;;17.25;5.85;;;13.40;99.90;;;;;;5066959;28;20044;-73
2022/10/26 01:23:07;;;;;;;10.95;5.80;;;13.40;99.90;;;;;;5067153;28;20538;-73
2022/10/26 01:25:47;;;;;;;11.77;6.47;;;13.40;99.90;;;;;;5056541;28;20024;-73
2022/10/26 01:29:10;;;;;;;10.60;5.80;;;13.40;99.90;;;;;;5064096;28;20087;-73
2022/10/26 01:31:46;;;;;;;10.03;5.93;;;13.30;99.90;;;;;;5032322;28;20033;-72
2022/10/26 01:34:21;;;;;;;10.77;5.60;;;13.40;99.90;;;;;;5047830;28;20116;-73
2022/10/26 01:36:54;;;;;;;13.35;6.28;;;13.50;99.90;;;;;;5055463;28;20489;-73
2022/10/26 01:39:44;;;;;;;12.05;5.30;;;13.50;99.90;;;;;;5062857;28;20032;-72
2022/10/26 01:42:14;;;;;;;9.75;5.47;;;13.50;99.90;;;;;;5064301;28;20644;-73
2022/10/26 01:44:45;;;;;;;14.40;5.85;;;13.50;99.90;;;;;;5059839;28;20040;-73
2022/10/26 01:47:14;;;;;;;14.82;6.43;;;13.50;99.90;;;;;;5065092;28;20032;-73
2022/10/26 01:49:45;;;;;;;11.25;5.80;;;13.50;99.90;;;;;;5061048;28;20035;-73
2022/10/26 01:52:11;;;;;;;17.52;6.15;;;13.50;99.90;;;;;;5066174;28;20065;-73
2022/10/26 01:54:37;;;;;;;13.90;5.93;;;13.40;99.90;;;;;;5066169;28;20021;-73
2022/10/26 01:57:09;;;;;;;12.50;5.65;;;13.50;99.90;;;;;;5065406;28;20374;-73
2022/10/26 01:59:54;;;;;;;10.82;6.20;;;13.50;99.90;;;;;;5065858;28;20036;-72
2022/10/26 02:02:45;;;;;;;12.88;5.82;;;13.50;99.90;;;;;;5058688;28;20081;-73
2022/10/26 02:05:28;;;;;;;15.75;7.15;;;13.60;99.90;;;;;;5065715;28;20020;-73
2022/10/26 02:08:36;;;;;;;10.20;6.53;;;13.50;99.90;;;;;;5067238;28;20071;-73
2022/10/26 02:11:21;;;;;;;11.50;6.45;;;13.60;99.90;;;;;;5044058;28;20067;-73
2022/10/26 02:13:55;;;;;;;17.17;6.90;;;13.60;99.90;;;;;;5063325;28;20206;-73
2022/10/26 02:16:37;;;;;;;12.38;7.25;;;13.60;99.90;;;;;;5064132;28;20066;-73
2022/10/26 02:19:18;;;;;;;13.27;7.20;;;13.50;99.90;;;;;;5064614;28;20481;-74
2022/10/26 02:21:50;;;;;;;16.35;7.57;;;13.60;99.90;;;;;;5060041;28;20153;-73
2022/10/26 02:24:16;;;;;;;15.27;6.90;;;13.60;99.90;;;;;;5069550;28;20108;-73
2022/10/26 02:26:46;;;;;;;15.82;7.47;;;13.60;99.90;;;;;;5064288;28;20024;-73
2022/10/26 02:29:17;;;;;;;14.23;7.93;;;13.60;99.90;;;;;;5063754;28;20017;-73
2022/10/26 02:31:45;;;;;;;15.45;7.85;;;13.60;99.90;;;;;;5062762;28;20142;-73
2022/10/26 02:34:14;;;;;;;12.02;7.80;;;13.60;99.90;;;;;;5055664;28;20112;-73
2022/10/26 02:36:43;;;;;;;17.33;9.20;;;13.60;99.90;;;;;;5067272;28;20041;-73
2022/10/26 02:39:11;;;;;;;21.80;8.45;;;13.70;99.90;;;;;;5061612;28;20044;-73
2022/10/26 02:41:39;;;;;;;17.35;8.73;;;13.70;99.90;;;;;;5063441;28;20040;-73
2022/10/26 02:44:12;;;;;;;17.38;9.20;;;13.70;99.90;;;;;;5063675;28;20040;-73
2022/10/26 02:46:39;;;;;;;16.35;9.25;;;13.70;99.90;;;;;;5061278;28;20051;-73
2022/10/26 02:49:05;;;;;;;19.08;8.13;;;13.70;99.90;;;;;;5062420;28;20040;-73
2022/10/26 02:52:04;;;;;;;23.20;8.43;;;13.70;99.90;;;;;;5060250;28;20025;-73
2022/10/26 02:54:39;;;;;;;18.15;9.35;;;13.70;99.90;;;;;;5056782;28;20485;-73
2022/10/26 02:57:14;;;;;;;21.85;9.18;;;13.70;99.90;;;;;;5062084;28;20023;-72
2022/10/26 02:59:46;;;;;;;19.15;9.55;;;13.80;99.90;;;;;;5065569;28;20059;-73
2022/10/26 03:02:15;;;;;;;19.40;9.32;;;13.70;99.90;;;;;;5060829;28;20021;-72
2022/10/26 03:04:41;;;;;;;18.73;8.70;;;13.70;99.90;;;;;;5061215;28;20029;-73
2022/10/26 03:07:06;;;;;;;19.13;9.07;;;13.70;99.90;;;;;;5063538;28;20075;-73
2022/10/26 03:09:32;;;;;;;13.02;9.27;;;13.80;99.90;;;;;;5057013;28;20033;-73
2022/10/26 03:11:58;;;;;;;15.63;8.93;;;13.70;99.90;;;;;;5061674;28;20504;-73
2022/10/26 03:14:23;;;;;;;17.20;9.40;;;13.70;99.90;;;;;;5060216;28;20025;-73
2022/10/26 03:16:49;;;;;;;15.63;9.68;;;13.70;99.90;;;;;;5061545;28;20560;-73
2022/10/26 03:19:15;;;;;;;14.98;8.45;;;13.70;99.90;;;;;;5061731;28;20388;-73
2022/10/26 03:21:41;;;;;;;19.55;9.13;;;13.70;99.90;;;;;;5059279;28;20389;-73
2022/10/26 03:24:07;;;;;;;17.02;9.75;;;13.70;99.90;;;;;;5058685;28;20021;-73
2022/10/26 03:26:33;;;;;;;16.38;8.80;;;13.70;99.90;;;;;;5061473;28;20055;-73
2022/10/26 03:28:59;;;;;;;14.43;8.50;;;13.80;99.90;;;;;;5065730;28;20032;-73
2022/10/26 03:31:24;;;;;;;15.52;8.70;;;13.70;99.90;;;;;;5059727;28;20104;-73
2022/10/26 03:33:50;;;;;;;13.65;7.60;;;13.70;99.90;;;;;;5060288;28;20029;-73
2022/10/26 03:36:16;;;;;;;17.70;8.13;;;13.70;99.90;;;;;;5057069;28;20035;-73
2022/10/26 03:38:41;;;;;;;14.27;8.00;;;13.70;99.90;;;;;;5062770;28;20041;-73
2022/10/26 03:41:07;;;;;;;15.30;7.97;;;13.60;99.90;;;;;;5060604;28;20481;-73
2022/10/26 03:43:32;;;;;;;20.65;8.52;;;13.70;99.90;;;;;;5064283;28;20028;-73
2022/10/26 03:45:58;;;;;;;18.17;7.75;;;13.60;99.90;;;;;;5063491;28;20384;-73
2022/10/26 03:48:24;;;;;;;14.73;7.47;;;13.70;99.90;;;;;;5062736;28;20103;-73
2022/10/26 03:50:49;;;;;;;18.73;8.27;;;13.60;99.90;;;;;;5063580;28;20086;-73
2022/10/26 03:53:15;;;;;;;13.88;7.80;;;13.60;99.90;;;;;;5058316;28;20492;-73
2022/10/26 03:55:43;;;;;;;15.88;8.35;;;13.60;99.90;;;;;;5058997;28;20025;-73
2022/10/26 03:58:09;;;;;;;17.08;8.75;;;13.60;99.90;;;;;;5054911;28;20355;-73
2022/10/26 04:00:35;;;;;;;13.27;8.40;;;13.70;99.90;;;;;;5061088;28;20047;-73
2022/10/26 04:03:00;;;;;;;14.10;7.65;;;13.70;99.90;;;;;;5055452;28;20385;-73
2022/10/26 04:05:27;;;;;;;17.23;8.23;;;13.70;99.90;;;;;;5058226;28;20025;-73
2022/10/26 04:07:55;;;;;;;14.93;7.90;;;13.80;99.90;;;;;;5057445;28;20031;-73
2022/10/26 04:10:21;;;;;;;14.57;6.82;;;13.80;99.90;;;;;;5060380;28;20029;-73
2022/10/26 04:12:46;;;;;;;10.20;7.28;;;13.70;99.90;;;;;;5059307;28;20099;-73
2022/10/26 04:15:12;;;;;;;14.45;7.70;;;13.70;99.90;;;;;;5060322;28;20116;-73
2022/10/26 04:17:38;;;;;;;12.40;6.43;;;13.70;99.90;;;;;;5060625;28;20075;-73
2022/10/26 04:20:04;;;;;;;16.45;7.25;;;13.70;99.90;;;;;;5059794;28;20040;-73
2022/10/26 04:22:29;;;;;;;13.18;6.63;;;13.70;99.90;;;;;;5065375;28;20082;-73
2022/10/26 04:24:55;;;;;;;12.60;7.05;;;13.80;99.90;;;;;;5058501;28;20436;-73
2022/10/26 04:27:21;;;;;;;11.07;5.45;;;13.70;99.90;;;;;;5067590;28;20055;-72
2022/10/26 04:29:47;;;;;;;18.67;6.90;;;13.80;99.90;;;;;;5060180;28;20044;-73
2022/10/26 04:32:12;;;;;;;17.05;7.00;;;13.80;99.90;;;;;;5060334;28;20067;-73
2022/10/26 04:34:38;;;;;;;13.00;6.65;;;13.70;99.90;;;;;;5063083;28;20441;-73
2022/10/26 04:37:03;;;;;;;16.52;7.13;;;13.80;99.90;;;;;;5058317;28;20500;-73
2022/10/26 04:39:29;;;;;;;12.40;6.00;;;13.70;99.90;;;;;;5056823;28;20116;-73
2022/10/26 04:41:55;;;;;;;16.27;6.88;;;13.70;99.90;;;;;;5059573;28;20031;-73
2022/10/26 04:44:20;;;;;;;9.07;5.88;;;13.70;99.90;;;;;;5057875;28;20064;-73
2022/10/26 04:46:46;;;;;;;10.25;5.15;;;13.80;99.90;;;;;;5054680;28;20037;-73
2022/10/26 04:49:11;;;;;;;7.45;5.13;;;13.80;99.90;;;;;;5056169;28;20057;-73
2022/10/26 04:51:37;;;;;;;13.50;5.78;;;13.80;99.90;;;;;;5060056;28;20039;-73
2022/10/26 04:54:03;;;;;;;16.45;5.90;;;13.80;99.90;;;;;;5062508;28;20029;-73
2022/10/26 04:56:29;;;;;;;10.07;5.72;;;13.80;99.90;;;;;;5061593;28;20112;-73
2022/10/26 04:58:55;;;;;;;13.23;5.25;;;13.90;99.90;;;;;;5064148;28;20401;-73
2022/10/26 05:01:21;;;;;;;8.52;4.82;;;13.90;99.90;;;;;;5060017;28;20047;-73
2022/10/26 05:03:51;;;;;;;13.70;5.50;;;13.90;99.90;;;;;;5072511;28;20992;-73
2022/10/26 05:06:18;;;;;;;9.27;4.85;;;13.90;99.90;;;;;;5060689;28;20093;-73
2022/10/26 05:08:43;;;;;;;10.82;4.45;;;13.90;99.90;;;;;;5059877;28;20021;-73
2022/10/26 05:11:09;;;;;;;9.18;5.00;;;13.90;99.90;;;;;;5061632;28;20431;-73
2022/10/26 05:13:35;;;;;;;11.57;6.13;;;13.90;99.90;;;;;;5060512;28;20027;-73
2022/10/26 05:16:00;;;;;;;9.25;4.60;;;14.00;99.90;;;;;;5060444;28;20094;-73
2022/10/26 05:18:26;;;;;;;9.70;4.57;;;14.00;99.90;;;;;;5063607;28;20056;-73
2022/10/26 05:20:53;;;;;;;11.43;4.47;;;13.90;99.90;;;;;;5061385;28;20115;-73
2022/10/26 05:23:19;;;;;;;17.35;4.88;;;14.00;99.90;;;;;;5060197;28;20025;-73
2022/10/26 05:25:45;;;;;;;8.25;4.95;;;14.00;99.90;;;;;;5059616;28;20489;-73
2022/10/26 05:28:12;;;;;;;11.32;5.07;;;14.00;99.90;;;;;;5058841;28;20028;-73
2022/10/26 05:30:42;;;;;;;10.25;4.60;;;14.00;99.90;;;;;;5060867;28;20078;-73
2022/10/26 05:33:09;;;;;;;8.70;4.63;;;13.90;99.90;;;;;;5058468;28;20031;-73
2022/10/26 05:35:35;;;;;;;10.00;4.88;;;14.00;99.90;;;;;;5065835;28;20390;-73
2022/10/26 05:38:08;;;;;;;15.27;3.92;;;14.00;99.90;;;;;;5057858;28;20033;-72
2022/10/26 05:40:34;;;;;;;11.80;4.88;;;14.00;99.90;;;;;;5062714;28;20033;-73
2022/10/26 05:43:00;;;;;;;11.35;4.78;;;14.10;99.90;;;;;;5063488;28;20507;-73
2022/10/26 05:45:27;;;;;;;9.80;3.92;;;14.00;99.90;;;;;;5061642;28;20024;-73
2022/10/26 05:47:53;;;;;;;9.25;4.63;;;14.00;99.90;;;;;;5057055;28;20025;-73
2022/10/26 05:50:18;;;;;;;8.48;4.40;;;14.00;99.90;;;;;;5063047;28;20091;-72
2022/10/26 05:52:46;;;;;;;16.13;5.57;;;13.90;99.90;;;;;;5057853;28;20032;-72
2022/10/26 05:55:16;;;;;;;16.38;4.28;;;13.90;99.90;;;;;;5060046;28;20448;-72
2022/10/26 05:57:42;;;;;;;12.68;3.80;;;13.90;99.90;;;;;;5060988;28;20636;-72
2022/10/26 06:00:23;;;;;;;7.68;4.30;;;14.00;99.90;;;;;;5064291;28;20052;-72
2022/10/26 06:03:08;;;;;;;17.20;4.63;;;14.00;99.90;;;;;;5058997;28;20070;-72
2022/10/26 06:05:46;;;;;;;12.30;4.22;;;14.10;99.90;;;;;;5063709;28;20040;-72
2022/10/26 06:08:12;;;;;;;8.73;4.78;;;14.10;99.90;;;;;;5057206;28;20132;-71
2022/10/26 06:10:38;;;;;;;11.88;4.47;;;14.10;99.90;;;;;;5064169;28;20053;-71
2022/10/26 06:13:04;;;;;;;9.32;3.92;;;14.00;99.90;;;;;;5059501;28;20017;-71
2022/10/26 06:15:36;;;;;;;8.30;3.95;;;14.10;99.90;;;;;;5062099;28;20056;-71
2022/10/26 06:18:14;;;;;;;12.82;4.90;;;14.10;99.90;;;;;;5059260;28;20029;-71
2022/10/26 06:21:05;;;;;;;13.68;4.30;;;14.10;99.90;;;;;;5061984;28;20044;-71
2022/10/26 06:23:44;;;;;;;13.07;4.35;;;14.00;99.90;;;;;;5056170;28;20137;-71
2022/10/26 06:26:15;;;;;;;11.02;4.72;;;14.00;99.90;;;;;;5060825;28;20021;-71
2022/10/26 06:28:48;;;;;;;15.18;4.72;;;13.90;99.90;;;;;;5062746;28;20082;-70
2022/10/26 06:31:13;;;;;;;;;;;13.90;99.90;;;;;;5061347;28;20032;-71
2022/10/26 06:33:40;;;;;;;9.05;4.05;;;13.90;99.90;;;;;;5059344;28;19958;-71
2022/10/26 06:36:22;;;;;;;14.60;4.95;;;14.00;99.90;;;;;;5059990;28;20114;-71
2022/10/26 06:38:52;;;;;;;10.95;4.10;;;14.00;99.90;;;;;;5058297;28;20036;-73
2022/10/26 06:41:19;;;;;;;9.02;3.45;;;14.00;99.90;;;;;;5058880;28;20121;-72
2022/10/26 06:43:45;;;;;;;11.07;4.93;;;14.00;99.90;;;;;;5059139;28;20032;-71
2022/10/26 06:46:31;;;;;;;16.20;4.90;;;14.00;99.90;;;;;;5061876;28;20023;-71
2022/10/26 06:49:06;;;;;;;12.50;4.43;;;14.00;99.90;;;;;;5061064;28;20045;-71
2022/10/26 06:51:39;;;;;;;9.50;4.38;;;13.90;99.90;;;;;;5066663;28;20119;-71
2022/10/26 06:54:22;;;;;;;18.90;5.20;;;13.90;99.90;;;;;;5064895;28;20029;-72
2022/10/26 06:56:48;;;;;;;8.38;4.18;;;13.90;99.90;;;;;;5056415;28;20021;-71
2022/10/26 06:59:34;;;;;;;11.65;4.10;;;13.90;99.90;;;;;;5058254;28;20040;-71
2022/10/26 07:01:59;;;;;;;14.98;4.68;;;13.90;99.90;;;;;;5061945;28;20025;-71
2022/10/26 07:04:25;;;;;;;17.83;4.60;;;13.80;99.90;;;;;;5026844;28;20055;-71
2022/10/26 07:06:50;;;;;;;8.80;4.55;;;13.80;99.90;;;;;;5054899;28;20108;-72
2022/10/26 07:09:16;;;;;;;11.10;4.88;;;13.80;99.90;;;;;;5049525;28;20099;-71
2022/10/26 07:11:42;;;;;;;12.18;4.82;;;13.90;99.90;;;;;;5050516;28;20033;-71
2022/10/26 07:14:07;;;;;;;12.68;3.95;;;13.90;99.90;;;;;;5059366;28;20048;-72
2022/10/26 07:16:33;;;;;;;10.65;4.45;;;13.90;99.90;;;;;;5054785;28;20031;-71
2022/10/26 07:18:58;;;;;;;10.98;4.40;;;13.90;99.90;;;;;;5053344;28;20036;-71
2022/10/26 07:21:24;;;;;;;9.80;3.95;;;13.90;99.90;;;;;;5055007;28;20051;-72
2022/10/26 07:23:51;;;;;;;9.95;5.35;;;13.90;99.90;;;;;;5053030;28;20015;-72
2022/10/26 07:26:17;;;;;;;10.02;5.10;;;14.00;99.90;;;;;;5054669;28;20056;-73
2022/10/26 07:28:43;;;;;;;13.85;4.50;;;13.90;99.90;;;;;;5051552;28;20474;-72
2022/10/26 07:31:09;;;;;;;14.07;4.80;;;13.90;99.90;;;;;;5055405;28;20016;-72
2022/10/26 07:33:34;;;;;;;14.40;5.05;;;14.00;99.90;;;;;;5053502;28;20024;-72
2022/10/26 07:36:00;;;;;;;12.35;5.30;;;14.00;99.90;;;;;;5052603;28;20096;-73
2022/10/26 07:38:25;;;;;;;14.52;5.43;;;13.90;99.90;;;;;;5052767;28;20564;-72
2022/10/26 07:40:53;;;;;;;10.85;5.82;;;14.00;99.90;;;;;;5051053;28;20477;-72
2022/10/26 07:43:19;;;;;;;8.10;5.57;;;14.00;99.90;;;;;;5053234;28;20457;-72
2022/10/26 07:45:48;;;;;;;12.60;6.18;;;14.10;99.90;;;;;;5052244;28;20032;-72
2022/10/26 07:48:13;;;;;;;11.23;5.03;;;14.10;99.90;;;;;;5052390;28;20094;-73
2022/10/26 07:50:39;;;;;;;10.13;5.47;;;14.20;99.90;;;;;;5051318;28;20435;-72
2022/10/26 07:53:04;;;;;;;8.45;4.88;;;14.20;99.90;;;;;;5050029;28;20013;-73
2022/10/26 07:55:30;;;;;;;9.30;4.88;;;14.30;99.90;;;;;;5056038;28;20499;-72
2022/10/26 07:57:56;;;;;;;10.27;4.15;;;14.30;99.90;;;;;;5053439;28;20395;-72
2022/10/26 08:00:21;;;;;;;11.30;3.75;;;14.30;99.90;;;;;;5051655;28;20049;-72
2022/10/26 08:02:47;;;;;;;9.77;3.88;;;14.40;99.90;;;;;;5053696;28;20025;-72
2022/10/26 08:05:12;;;;;;;10.23;3.40;;;14.50;99.90;;;;;;5049724;28;20033;-72
2022/10/26 08:07:44;;;;;;;6.25;2.60;;;14.60;99.90;;;;;;5050249;28;20444;-73
2022/10/26 08:10:11;;;;;;;6.75;2.83;;;14.80;99.90;;;;;;5051162;28;20099;-73
2022/10/26 08:12:37;;;;;;;4.88;2.70;;;14.90;99.90;;;;;;5051929;28;20028;-72
2022/10/26 08:15:03;;;;;;;6.47;2.60;;;14.90;99.90;;;;;;5049271;28;20041;-72
2022/10/26 08:17:29;;;;;;;5.15;2.20;;;15.20;99.90;;;;;;5049886;28;20408;-73
2022/10/26 08:19:54;;;;;;;7.32;2.60;;;15.20;99.90;;;;;;5050135;28;20032;-73
2022/10/26 08:22:20;;;;;;;6.55;2.30;;;15.40;99.90;;;;;;5053086;28;20354;-72
2022/10/26 08:24:45;;;;;;;6.53;2.40;;;15.50;99.90;;;;;;5049350;28;20051;-72
2022/10/26 08:27:13;;;;;;;4.75;2.17;;;15.70;99.90;;;;;;5049701;28;20032;-73
2022/10/26 08:29:39;;;;;;;7.15;2.40;;;15.70;99.90;;;;;;5050911;28;20084;-73
2022/10/26 08:32:05;;;;;;;3.85;2.22;;;15.90;99.90;;;;;;5051221;28;20025;-73
2022/10/26 08:34:31;;;;;;;5.97;2.53;;;15.90;99.90;;;;;;5052924;28;20086;-73
2022/10/26 08:36:56;;;;;;;8.40;2.50;;;16.00;99.90;;;;;;5049625;28;22604;-72
2022/10/26 08:39:23;;;;;;;9.82;2.60;;;16.10;99.90;;;;;;5052154;28;20063;-72
2022/10/26 08:41:53;;;;;;;4.78;2.15;;;16.10;99.90;;;;;;5054047;28;20021;-72
2022/10/26 08:44:41;;;;;;;8.50;2.63;;;16.20;99.90;;;;;;5050125;28;20457;-72
2022/10/26 08:47:22;;;;;;;4.15;2.38;;;16.20;99.90;;;;;;5047563;28;20051;-72
2022/10/26 08:50:05;;;;;;;5.43;2.22;;;16.40;99.90;;;;;;5049871;28;20377;-72
2022/10/26 08:52:48;;;;;;;5.35;2.88;;;16.40;99.90;;;;;;5048791;28;20048;-73
2022/10/26 08:55:18;;;;;;;5.38;2.60;;;16.40;99.90;;;;;;5049870;28;20028;-72
2022/10/26 08:57:46;;;;;;;6.28;2.13;;;16.50;99.90;;;;;;5053204;28;20021;-73
2022/10/26 09:00:21;;;;;;;6.13;2.38;;;16.60;99.90;;;;;;5051613;28;20469;-73
2022/10/26 09:02:51;;;;;;;10.05;3.03;;;16.80;99.90;;;;;;5051382;28;20534;-72
2022/10/26 09:05:23;;;;;;;10.10;3.20;;;16.80;99.90;;;;;;5049857;28;20046;-73
2022/10/26 09:08:17;;;;;;;6.07;2.58;;;16.90;99.90;;;;;;5046865;28;20052;-73
2022/10/26 09:11:11;;;;;;;4.22;2.22;;;17.00;99.90;;;;;;5049732;28;20732;-73
2022/10/26 09:14:14;;;;;;;11.27;3.00;;;17.10;99.90;;;;;;5052664;28;20029;-73
2022/10/26 09:17:01;;;;;;;5.82;2.65;;;17.20;99.90;;;;;;5052902;28;20047;-74
2022/10/26 09:19:43;;;;;;;9.80;2.85;;;17.40;99.90;;;;;;5052480;28;20089;-73
2022/10/26 09:22:09;;;;;;;5.25;2.53;;;17.40;99.90;;;;;;5057229;28;20046;-72
2022/10/26 09:24:51;;;;;;;6.07;2.75;;;17.50;99.90;;;;;;5055360;28;20020;-73
2022/10/26 09:27:31;;;;;;;8.68;2.45;;;17.60;99.90;;;;;;5053190;28;20025;-73
2022/10/26 09:30:02;;;;;;;8.18;2.20;;;17.70;99.90;;;;;;5055916;28;20100;-73
2022/10/26 09:32:37;;;;;;;8.27;2.30;;;17.80;99.90;;;;;;5054714;28;20067;-72
2022/10/26 09:35:43;;;;;;;6.78;1.85;;;17.90;99.90;;;;;;5056005;28;20497;-73
2022/10/26 09:38:27;;;;;;;8.75;2.47;;;18.10;99.90;;;;;;5055888;28;20048;-73
2022/10/26 09:41:12;;;;;;;6.63;2.60;;;18.10;99.90;;;;;;5057555;28;20051;-72
2022/10/26 09:43:45;;;;;;;5.88;2.28;;;18.20;99.90;;;;;;5051276;28;20021;-72
2022/10/26 09:46:20;;;;;;;12.00;2.55;;;18.30;99.90;;;;;;5052210;28;20044;-73
2022/10/26 09:48:54;;;;;;;6.57;1.70;;;18.40;99.90;;;;;;5051226;28;20064;-72
2022/10/26 09:51:22;;;;;;;4.93;2.45;;;18.50;99.90;;;;;;5054753;28;20068;-72
2022/10/26 09:53:48;;;;;;;4.22;1.98;;;18.60;99.90;;;;;;5052266;28;20029;-72
2022/10/26 09:56:15;;;;;;;4.22;2.05;;;18.60;99.90;;;;;;5048984;28;20033;-73
2022/10/26 09:58:52;;;;;;;5.20;2.22;;;18.60;99.90;;;;;;5054248;28;20478;-72
2022/10/26 10:01:33;;;;;;;5.38;2.17;;;18.70;99.90;;;;;;5055199;28;20036;-73
2022/10/26 10:04:25;;;;;;;4.50;2.25;;;18.70;99.90;;;;;;5052018;28;20092;-72
2022/10/26 10:06:59;;;;;;;8.43;2.13;;;18.70;99.90;;;;;;5052292;28;20040;-73
2022/10/26 10:09:25;;;;;;;7.40;1.90;;;18.80;99.90;;;;;;5055166;28;20056;-73
2022/10/26 10:11:57;;;;;;;6.32;2.33;;;18.90;99.90;;;;;;5053426;28;20549;-74
2022/10/26 10:14:38;;;;;;;3.25;1.83;;;18.90;99.90;;;;;;5055926;28;20107;-74
2022/10/26 10:17:09;;;;;;;7.60;2.33;;;18.90;99.90;;;;;;5058488;28;20145;-74
2022/10/26 10:19:37;;;;;;;6.38;2.72;;;18.90;99.90;;;;;;5058388;28;20036;-74
2022/10/26 10:22:22;;;;;;;7.57;2.28;;;19.00;99.90;;;;;;5067846;28;20025;-74
2022/10/26 10:24:59;;;;;;;4.80;2.35;;;19.10;99.90;;;;;;5053183;28;20017;-75
2022/10/26 10:27:27;;;;;;;4.95;2.25;;;19.10;99.90;;;;;;5058293;28;20025;-74
2022/10/26 10:29:54;;;;;;;7.30;2.65;;;19.10;99.90;;;;;;5053274;28;20017;-76
2022/10/26 10:32:31;;;;;;;8.25;2.25;;;19.20;99.90;;;;;;5055101;28;20044;-74
2022/10/26 10:34:59;;;;;;;4.65;2.13;;;19.30;99.90;;;;;;5054687;28;20013;-74
2022/10/26 10:37:30;;;;;;;5.43;2.10;;;19.20;99.90;;;;;;5056566;28;20025;-74
2022/10/26 10:40:08;;;;;;;8.63;2.33;;;19.40;99.90;;;;;;5059084;28;20507;-74
2022/10/26 10:42:39;;;;;;;6.00;2.13;;;19.30;99.90;;;;;;5053982;28;20024;-74
2022/10/26 10:45:17;;;;;;;7.50;2.08;;;19.50;99.90;;;;;;5053919;28;20027;-74
2022/10/26 10:48:00;;;;;;;5.00;1.60;;;19.50;99.90;;;;;;5051125;28;20029;-75
2022/10/26 10:50:25;;;;;;;10.70;2.88;;;19.70;99.90;;;;;;5054017;28;20032;-75
2022/10/26 10:52:51;;;;;;;8.02;2.30;;;19.80;99.90;;;;;;5054020;28;20500;-74
2022/10/26 10:55:21;;;;;;;4.47;2.30;;;19.80;99.90;;;;;;5054192;28;20025;-74
2022/10/26 10:58:48;;;;;;;10.60;1.98;;;19.80;99.90;;;;;;5054461;28;20580;-73
2022/10/26 11:01:19;;;;;;;4.43;1.70;;;19.90;99.90;;;;;;5032831;28;20045;-74
2022/10/26 11:04:01;;;;;;;10.52;2.22;;;20.00;99.90;;;;;;5054171;28;20024;-74
2022/10/26 11:06:28;;;;;;;9.07;2.03;;;20.00;99.90;;;;;;5053912;28;20024;-73
2022/10/26 11:09:10;;;;;;;5.70;2.08;;;20.00;99.90;;;;;;5053462;28;20021;-74
2022/10/26 11:11:55;;;;;;;7.22;1.73;;;20.10;99.90;;;;;;5052878;28;20155;-74
2022/10/26 11:14:30;;;;;;;6.60;1.45;;;20.00;99.90;;;;;;5050478;28;20035;-74
2022/10/26 11:17:11;;;;;;;5.45;1.73;;;20.20;99.90;;;;;;5051572;28;20040;-74
2022/10/26 11:19:49;;;;;;;6.97;1.85;;;20.30;99.90;;;;;;5054970;28;20036;-75
2022/10/26 11:22:21;;;;;;;4.68;2.00;;;20.30;99.90;;;;;;5054340;28;20028;-74
2022/10/26 11:24:53;;;;;;;6.35;2.22;;;20.20;99.90;;;;;;5051825;28;20108;-74
2022/10/26 11:27:28;;;;;;;8.90;1.98;;;20.30;99.90;;;;;;5067993;28;20048;-74
2022/10/26 11:30:05;;;;;;;8.85;1.73;;;20.40;99.90;;;;;;5054387;28;20097;-74
2022/10/26 11:32:49;;;;;;;8.07;1.80;;;20.50;99.90;;;;;;5068627;28;20029;-74
2022/10/26 11:35:30;;;;;;;4.53;1.70;;;20.50;99.90;;;;;;5050631;28;20154;-73
2022/10/26 11:38:15;;;;;;;5.25;1.80;;;20.50;99.90;;;;;;5053842;28;20024;-73
2022/10/26 11:41:00;;;;;;;6.95;1.48;;;20.50;99.90;;;;;;5052029;28;20041;-73
2022/10/26 11:43:32;;;;;;;3.58;1.30;;;20.50;99.90;;;;;;5048150;28;20050;-75
2022/10/26 11:46:17;;;;;;;7.85;2.13;;;20.50;99.90;;;;;;5052038;28;20491;-75
2022/10/26 11:49:01;;;;;;;6.40;2.00;;;20.50;99.90;;;;;;5054253;28;20032;-75
2022/10/26 11:51:49;;;;;;;2.75;2.13;;;20.50;99.90;;;;;;5052618;28;20031;-74
2022/10/26 11:54:31;;;;;;;3.72;2.20;;;20.60;99.90;;;;;;5054613;28;20202;-74
2022/10/26 11:56:58;;;;;;;2.83;2.10;;;20.70;99.90;;;;;;5055670;28;20021;-74
2022/10/26 11:59:26;;;;;;;4.10;1.70;;;20.70;99.90;;;;;;5054710;28;20041;-73
2022/10/26 12:02:19;;;;;;;5.47;1.55;;;20.70;99.90;;;;;;5057532;28;20082;-73
2022/10/26 12:04:54;;;;;;;8.73;1.50;;;20.70;99.90;;;;;;5052933;28;20079;-73
2022/10/26 12:07:26;;;;;;;3.42;1.42;;;20.70;99.90;;;;;;5055606;28;20028;-73
2022/10/26 12:09:55;;;;;;;4.57;1.30;;;20.80;99.90;;;;;;5049962;28;20021;-74
2022/10/26 12:12:54;;;;;;;7.97;1.40;;;20.80;99.90;;;;;;5054543;28;20086;-73
2022/10/26 12:15:22;;;;;;;5.90;1.70;;;20.90;99.90;;;;;;5037739;28;20294;-74
2022/10/26 12:18:00;;;;;;;5.72;1.60;;;20.90;99.90;;;;;;5050322;28;21308;-73
2022/10/26 12:20:51;;;;;;;8.88;1.73;;;20.80;99.90;;;;;;5054520;28;20071;-73
2022/10/26 12:23:17;;;;;;;5.32;1.10;;;20.90;99.90;;;;;;5053851;28;20025;-73
2022/10/26 12:25:43;;;;;;;4.68;1.40;;;20.90;99.90;;;;;;5052507;28;20094;-73
2022/10/26 12:28:35;;;;;;;3.53;1.10;;;20.90;99.90;;;;;;5053219;28;20440;-73
2022/10/26 12:31:35;;;;;;;3.03;1.20;;;20.80;99.90;;;;;;5049186;28;20493;-73
2022/10/26 12:34:02;;;;;;;6.45;1.55;;;20.80;99.90;;;;;;5049657;28;20033;-73
2022/10/26 12:36:53;;;;;;;2.22;1.42;;;20.70;99.90;;;;;;5051492;28;20057;-74
2022/10/26 12:39:33;;;;;;;3.75;1.00;;;20.70;99.90;;;;;;5050492;28;20041;-73
2022/10/26 12:42:04;;;;;;;4.63;1.15;;;20.70;99.90;;;;;;5049446;28;20473;-73
2022/10/26 12:44:35;;;;;;;3.15;1.08;;;20.70;99.90;;;;;;5050365;28;20476;-74
2022/10/26 12:47:01;;;;;;;2.63;0.95;;;20.70;99.90;;;;;;5056207;28;20546;-73
2022/10/26 12:50:04;;;;;;;2.67;0.80;;;20.60;99.90;;;;;;5059720;28;20028;-74
2022/10/26 12:52:55;;;;;;;6.40;1.13;;;20.70;99.90;;;;;;5059218;28;20028;-75
2022/10/26 12:55:45;;;;;;;4.10;1.20;;;20.80;99.90;;;;;;5059347;28;20036;-74
2022/10/26 12:58:13;;;;;;;2.30;0.60;;;20.70;99.90;;;;;;5054999;28;20021;-73
2022/10/26 13:00:47;;;;;;;2.65;0.82;;;20.70;99.90;;;;;;5062297;28;20048;-73
2022/10/26 13:03:24;;;;;;;3.75;1.38;;;20.70;99.90;;;;;;5060264;28;20021;-73
2022/10/26 13:06:36;;;;;;;8.98;1.33;;;20.70;99.90;;;;;;5061568;28;20103;-73